Погода Матюлянына 2 недели

Гродненская область, Белоруссия

26 мая-08 июня
  • 26мая
    Сегодня
    +12°
    +26°
    Ясно и безоблачно
    ВремяПогодаТемператураВлажностьДавлениеВетер, м/сВероятность осадков
    00:00Практически безоблачно+16°C73 %754 мм2.0 м/с2 %
    03:00Ясно и безоблачно+14°C67 %755 мм2.7 м/с2 %
    06:00Ясно и безоблачно+14°C61 %755 мм2.3 м/с2 %
    09:00Ясно и безоблачно+20°C58 %755 мм1.2 м/с2 %
    12:00Ясно и безоблачно+24°C38 %755 мм2.5 м/с2 %
    15:00Ясно и безоблачно+26°C35 %755 мм2.9 м/с2 %
    18:00Ясно и безоблачно+26°C35 %754 мм2.3 м/с2 %
    21:00Ясно и безоблачно+21°C61 %754 мм1.8 м/с2 %
  • 27мая
    Понедельник
    +12°
    +27°
    Облачно с прояснениями
    ВремяПогодаТемператураВлажностьДавлениеВетер, м/сВероятность осадков
    00:00Ясно и безоблачно+15°C69 %755 мм2.2 м/с2 %
    03:00Ясно и безоблачно+13°C65 %755 мм2.0 м/с2 %
    06:00Ясно и безоблачно+13°C72 %755 мм0.9 м/с2 %
    09:00Практически безоблачно+21°C52 %755 мм0.6 м/с2 %
    12:00Небольшая облачность+26°C36 %755 мм2.4 м/с2 %
    15:00Облачно с прояснениями+26°C36 %754 мм2.6 м/с2 %
    18:00Ясно и безоблачно+26°C36 %753 мм2.8 м/с1 %
    21:00Ясно и безоблачно+21°C61 %752 мм2.0 м/с2 %
  • 28мая
    Вторник
    +13°
    +27°
    Облачно с прояснениями
    ВремяПогодаТемператураВлажностьДавлениеВетер, м/сВероятность осадков
    00:00Ясно и безоблачно+16°C74 %752 мм2.2 м/с2 %
    03:00Ясно и безоблачно+14°C79 %752 мм2.1 м/с2 %
    06:00Ясно и безоблачно+14°C80 %752 мм1.8 м/с2 %
    09:00Ясно и безоблачно+21°C62 %752 мм1.9 м/с2 %
    12:00Практически безоблачно+26°C38 %752 мм3.3 м/с2 %
    15:00Облачно с прояснениями+26°C39 %751 мм3.3 м/с21 %
    18:00Облачно с прояснениями+26°C38 %750 мм2.8 м/с33 %
    21:00Практически безоблачно+22°C67 %749 мм3.8 м/с5 %
  • 29мая
    Среда
    +13°
    +27°
    Ясно и безоблачно
    ВремяПогодаТемператураВлажностьДавлениеВетер, м/сВероятность осадков
    00:00Небольшая облачность+17°C85 %749 мм2.6 м/с2 %
    03:00Ясно и безоблачно+14°C86 %749 мм2.5 м/с2 %
    06:00Ясно и безоблачно+14°C85 %748 мм2.4 м/с2 %
    09:00Ясно и безоблачно+21°C64 %748 мм1.8 м/с2 %
    12:00Практически безоблачно+26°C29 %748 мм4.0 м/с4 %
    15:00Ясно и безоблачно+27°C26 %747 мм4.1 м/с19 %
    18:00Ясно и безоблачно+26°C27 %746 мм4.1 м/с15 %
    21:00Практически безоблачно+21°C49 %746 мм1.9 м/с4 %
  • 30мая
    Четверг
    +13°
    +28°
    Облачно с прояснениями
    ВремяПогодаТемператураВлажностьДавлениеВетер, м/сВероятность осадков
    00:00Ясно и безоблачно+17°C57 %745 мм2.4 м/с2 %
    03:00Ясно и безоблачно+14°C64 %745 мм2.2 м/с2 %
    06:00Облачно с прояснениями+13°C70 %744 мм1.9 м/с2 %
    09:00Облачно с прояснениями+20°C55 %745 мм1.8 м/с2 %
    12:00Облачно с прояснениями+26°C35 %744 мм3.8 м/с20 %
    15:00Облачно с прояснениями+27°C32 %744 мм4.0 м/с31 %
    18:00Практически безоблачно+26°C31 %743 мм4.1 м/с44 %
    21:00Практически безоблачно+23°C43 %744 мм3.5 м/с14 %
Мы используем cookies
Соглашаюсь